createdAt,value
2022-09-23T00:00:15.874Z,9.681725
2022-09-23T00:01:15.966Z,9.681087
2022-09-23T00:02:15.895Z,9.681261
2022-09-23T00:03:15.859Z,9.681149
2022-09-23T00:04:15.868Z,9.681187
2022-09-23T00:05:15.845Z,9.681397
2022-09-23T00:06:15.844Z,9.681273
2022-09-23T00:07:15.836Z,9.681457
2022-09-23T00:08:15.827Z,9.681614
2022-09-23T00:09:15.852Z,9.680931
2022-09-23T00:10:15.817Z,9.680981
2022-09-23T00:11:15.813Z,9.680732
2022-09-23T00:12:15.809Z,9.680986
2022-09-23T00:13:15.803Z,9.680731
2022-09-23T00:14:15.816Z,9.680692
2022-09-23T00:15:15.804Z,9.680783
2022-09-23T00:16:15.823Z,9.680904
2022-09-23T00:17:15.778Z,9.681199
2022-09-23T00:18:15.782Z,9.681378
2022-09-23T00:19:15.771Z,9.681411
2022-09-23T00:20:15.786Z,9.681161
2022-09-23T00:21:15.770Z,9.681225
2022-09-23T00:22:15.759Z,9.681199
2022-09-23T00:23:15.754Z,9.681347
2022-09-23T00:24:15.769Z,9.681573
2022-09-23T00:25:15.742Z,9.681289
2022-09-23T00:26:15.746Z,9.681394
2022-09-23T00:27:15.744Z,9.681347
2022-09-23T00:28:15.726Z,9.680940
2022-09-23T00:29:15.718Z,9.681060
2022-09-23T00:30:15.746Z,9.680921
2022-09-23T00:31:15.745Z,9.681071
2022-09-23T00:32:15.704Z,9.681178
2022-09-23T00:33:15.702Z,9.681336
2022-09-23T00:34:15.685Z,9.680757
2022-09-23T00:35:15.679Z,9.680730
2022-09-23T00:36:15.815Z,9.681152
2022-09-23T00:37:15.671Z,9.681097
2022-09-23T00:38:15.668Z,9.681150
2022-09-23T00:39:15.654Z,9.681256
2022-09-23T00:40:15.728Z,9.681056
2022-09-23T00:41:15.652Z,9.681262
2022-09-23T00:42:15.669Z,9.681190
2022-09-23T00:43:15.644Z,9.681196
2022-09-23T00:44:15.641Z,9.681098
2022-09-23T00:45:15.623Z,9.681067
2022-09-23T00:46:15.658Z,9.681034
2022-09-23T00:47:15.619Z,9.680574
2022-09-23T00:48:15.629Z,9.680803
2022-09-23T00:49:15.622Z,9.680680
2022-09-23T00:50:15.601Z,9.680619
2022-09-23T00:51:15.594Z,9.680713
2022-09-23T00:52:15.590Z,9.681172
2022-09-23T00:53:15.583Z,9.681293
2022-09-23T00:54:15.607Z,9.681290
2022-09-23T00:55:15.580Z,9.681159
2022-09-23T00:56:15.573Z,9.680882
2022-09-23T00:57:15.560Z,9.680926
2022-09-23T00:58:15.554Z,9.681038
2022-09-23T00:59:15.547Z,9.681129
2022-09-23T01:00:15.572Z,9.680987
2022-09-23T01:01:15.578Z,9.681022
2022-09-23T01:02:15.557Z,9.680983
2022-09-23T01:03:15.531Z,9.680783
2022-09-23T01:04:15.521Z,9.680945
2022-09-23T01:05:15.525Z,9.681098
2022-09-23T01:06:15.535Z,9.681143
2022-09-23T01:07:15.527Z,9.680765
2022-09-23T01:08:15.499Z,9.681010
2022-09-23T01:09:15.496Z,9.681016
2022-09-23T01:10:15.487Z,9.681192
2022-09-23T01:11:15.486Z,9.681119
2022-09-23T01:12:15.486Z,9.681028
2022-09-23T01:13:15.495Z,9.680792
2022-09-23T01:14:15.469Z,9.680982
2022-09-23T01:15:15.459Z,9.681385
2022-09-23T01:16:15.510Z,9.681345
2022-09-23T01:17:15.454Z,9.681073
2022-09-23T01:18:15.445Z,9.680816
2022-09-23T01:19:15.460Z,9.680701
2022-09-23T01:20:15.437Z,9.681041
2022-09-23T01:21:15.426Z,9.681114
2022-09-23T01:22:15.418Z,9.681043
2022-09-23T01:23:15.415Z,9.681061
2022-09-23T01:24:15.404Z,9.681186
2022-09-23T01:25:15.421Z,9.680964
2022-09-23T01:26:15.396Z,9.681155
2022-09-23T01:27:15.388Z,9.681149
2022-09-23T01:28:15.400Z,9.680918
2022-09-23T01:29:15.380Z,9.681154
2022-09-23T01:30:15.385Z,9.681063
2022-09-23T01:31:15.422Z,9.680991
2022-09-23T01:32:15.391Z,9.680916
2022-09-23T01:33:15.355Z,9.680972
2022-09-23T01:34:15.346Z,9.681018
2022-09-23T01:35:15.349Z,9.680783
2022-09-23T01:36:15.338Z,9.680984
2022-09-23T01:37:15.358Z,9.681060
2022-09-23T01:38:15.324Z,9.681007
2022-09-23T01:39:15.316Z,9.680934
2022-09-23T01:40:15.402Z,9.681120
2022-09-23T01:41:15.326Z,9.680970
2022-09-23T01:42:15.300Z,9.680953
2022-09-23T01:43:15.288Z,9.680973
2022-09-23T01:44:15.304Z,9.680926
2022-09-23T01:45:15.282Z,9.680851
2022-09-23T01:46:15.281Z,9.680881
2022-09-23T01:47:15.285Z,9.680856
2022-09-23T01:48:15.288Z,9.681334
2022-09-23T01:49:15.271Z,9.681090
2022-09-23T01:50:15.254Z,9.681668
2022-09-23T01:51:15.264Z,9.681190
2022-09-23T01:52:15.236Z,9.681182
2022-09-23T01:53:15.225Z,9.681142
2022-09-23T01:54:15.222Z,9.681344
2022-09-23T01:55:15.230Z,9.681200
2022-09-23T01:56:15.207Z,9.681261
2022-09-23T01:57:15.208Z,9.680777
2022-09-23T01:58:15.204Z,9.680779
2022-09-23T01:59:15.195Z,9.680618
2022-09-23T02:00:15.213Z,9.680803
2022-09-23T02:01:15.275Z,9.681130
2022-09-23T02:02:15.336Z,9.681373
2022-09-23T02:03:15.164Z,9.681416
2022-09-23T02:04:15.163Z,9.681125
2022-09-23T02:05:15.183Z,9.681197
2022-09-23T02:06:15.178Z,9.681378
2022-09-23T02:07:15.157Z,9.680574
2022-09-23T02:08:15.155Z,9.680842
2022-09-23T02:09:15.135Z,9.680797
2022-09-23T02:10:15.127Z,9.680826
2022-09-23T02:11:15.154Z,9.681608
2022-09-23T02:12:15.115Z,9.681608
2022-09-23T02:13:15.132Z,9.680844
2022-09-23T02:14:15.110Z,9.680540
2022-09-23T02:15:15.098Z,9.680601
2022-09-23T02:16:15.158Z,9.680649
2022-09-23T02:17:15.091Z,9.680500
2022-09-23T02:18:15.090Z,9.680453
2022-09-23T02:19:15.096Z,9.680379
2022-09-23T02:20:15.065Z,9.680453
2022-09-23T02:21:15.067Z,9.680511
2022-09-23T02:22:15.050Z,9.680482
2022-09-23T02:23:15.048Z,9.680311
2022-09-23T02:24:15.064Z,9.679771
2022-09-23T02:25:22.072Z,9.679771
2022-09-23T02:26:15.043Z,9.679717
2022-09-23T02:27:15.024Z,9.679717
2022-09-23T02:28:15.013Z,9.679717
2022-09-23T02:29:15.020Z,9.679717
2022-09-23T02:30:15.036Z,9.680329
2022-09-23T02:31:15.025Z,9.680357
2022-09-23T02:32:15.096Z,9.680264
2022-09-23T02:33:14.988Z,9.680488
2022-09-23T02:34:14.998Z,9.680594
2022-09-23T02:35:14.979Z,9.680760
2022-09-23T02:36:14.993Z,9.680223
2022-09-23T02:37:14.962Z,9.679822
2022-09-23T02:38:14.978Z,9.679756
2022-09-23T02:39:14.960Z,9.679570
2022-09-23T02:40:15.012Z,9.679333
2022-09-23T02:41:14.947Z,9.679633
2022-09-23T02:42:14.955Z,9.679598
2022-09-23T02:43:14.943Z,9.679286
2022-09-23T02:44:14.940Z,9.680152
2022-09-23T02:45:14.927Z,9.679869
2022-09-23T02:46:14.976Z,9.679855
2022-09-23T02:47:14.918Z,9.679756
2022-09-23T02:48:14.942Z,9.679758
2022-09-23T02:49:14.898Z,9.680242
2022-09-23T02:50:14.897Z,9.680876
2022-09-23T02:51:14.884Z,9.680820
2022-09-23T02:52:14.888Z,9.680820
2022-09-23T02:53:14.882Z,9.680820
2022-09-23T02:54:14.906Z,9.680305
2022-09-23T02:55:14.874Z,9.678828
2022-09-23T02:56:14.865Z,9.679520
2022-09-23T02:57:14.858Z,9.679338
2022-09-23T02:58:14.855Z,9.680476
2022-09-23T02:59:14.884Z,9.680476
2022-09-23T03:00:14.849Z,9.679750
2022-09-23T03:01:14.861Z,9.680100
2022-09-23T03:02:14.864Z,9.679783
2022-09-23T03:03:14.834Z,9.680230
2022-09-23T03:04:14.828Z,9.679986
2022-09-23T03:05:14.846Z,9.679977
2022-09-23T03:06:14.817Z,9.680450
2022-09-23T03:07:14.814Z,9.680627
2022-09-23T03:08:14.809Z,9.681055
2022-09-23T03:09:14.809Z,9.681068
2022-09-23T03:10:14.796Z,9.681280
2022-09-23T03:11:14.778Z,9.681106
2022-09-23T03:12:14.803Z,9.680917
2022-09-23T03:13:14.772Z,9.681028
2022-09-23T03:14:14.770Z,9.681466
2022-09-23T03:15:14.763Z,9.681619
2022-09-23T03:16:14.819Z,9.681407
2022-09-23T03:17:14.744Z,9.681530
2022-09-23T03:18:14.763Z,9.681497
2022-09-23T03:19:14.753Z,9.681316
2022-09-23T03:20:14.740Z,9.681108
2022-09-23T03:21:14.735Z,9.680905
2022-09-23T03:22:14.732Z,9.681126
2022-09-23T03:23:14.774Z,9.680965
2022-09-23T03:24:14.709Z,9.681138
2022-09-23T03:25:14.702Z,9.681145
2022-09-23T03:26:14.711Z,9.681055
2022-09-23T03:27:14.697Z,9.681239
2022-09-23T03:28:14.715Z,9.681152
2022-09-23T03:29:14.704Z,9.681033
2022-09-23T03:30:14.671Z,9.681089
2022-09-23T03:31:14.693Z,9.681309
2022-09-23T03:32:14.663Z,9.681384
2022-09-23T03:33:14.663Z,9.681026
2022-09-23T03:34:14.670Z,9.681497
2022-09-23T03:35:14.655Z,9.681336
2022-09-23T03:36:14.640Z,9.681035
2022-09-23T03:37:14.635Z,9.681153
2022-09-23T03:38:14.639Z,9.681041
2022-09-23T03:39:14.644Z,9.680600
2022-09-23T03:40:14.685Z,9.680583
2022-09-23T03:41:14.615Z,9.680623
2022-09-23T03:42:14.607Z,9.680706
2022-09-23T03:43:14.629Z,9.680765
2022-09-23T03:44:14.601Z,9.681217
2022-09-23T03:45:14.612Z,9.681226
2022-09-23T03:46:14.673Z,9.681150
2022-09-23T03:47:14.587Z,9.681285
2022-09-23T03:48:14.602Z,9.681325
2022-09-23T03:49:14.570Z,9.681227
2022-09-23T03:50:14.575Z,9.681006
2022-09-23T03:51:14.565Z,9.680916
2022-09-23T03:52:14.551Z,9.680733
2022-09-23T03:53:14.544Z,9.680814
2022-09-23T03:54:14.565Z,9.681226
2022-09-23T03:55:14.531Z,9.680962
2022-09-23T03:56:14.530Z,9.681037
2022-09-23T03:57:14.534Z,9.681161
2022-09-23T03:58:14.520Z,9.681206
2022-09-23T03:59:14.513Z,9.681287
2022-09-23T04:00:14.525Z,9.681084
2022-09-23T04:01:14.582Z,9.681021
2022-09-23T04:02:14.561Z,9.680757
2022-09-23T04:03:14.518Z,9.681371
2022-09-23T04:04:14.489Z,9.681072
2022-09-23T04:05:14.492Z,9.680953
2022-09-23T04:06:14.476Z,9.680763
2022-09-23T04:07:14.469Z,9.680777
2022-09-23T04:08:14.496Z,9.681178
2022-09-23T04:09:14.459Z,9.680926
2022-09-23T04:10:14.457Z,9.681207
2022-09-23T04:11:14.450Z,9.681104
2022-09-23T04:12:14.447Z,9.681538
2022-09-23T04:13:14.470Z,9.681314
2022-09-23T04:14:14.434Z,9.681155
2022-09-23T04:15:14.429Z,9.681315
2022-09-23T04:16:14.591Z,9.681202
2022-09-23T04:17:14.431Z,9.681054
2022-09-23T04:18:14.421Z,9.680704
2022-09-23T04:19:14.445Z,9.680962
2022-09-23T04:20:14.418Z,9.681119
2022-09-23T04:21:14.409Z,9.681196
2022-09-23T04:22:14.407Z,9.681133
2022-09-23T04:23:14.419Z,9.681058
2022-09-23T04:24:14.399Z,9.681099
2022-09-23T04:25:14.390Z,9.681113
2022-09-23T04:26:14.387Z,9.681038
2022-09-23T04:27:14.379Z,9.681189
2022-09-23T04:28:14.380Z,9.681394
2022-09-23T04:29:14.386Z,9.681059
2022-09-23T04:30:14.373Z,9.681114
2022-09-23T04:31:14.399Z,9.681119
2022-09-23T04:32:14.358Z,9.681321
2022-09-23T04:33:14.347Z,9.681466
2022-09-23T04:34:14.341Z,9.681282
2022-09-23T04:35:14.362Z,9.681472
2022-09-23T04:36:14.364Z,9.681204
2022-09-23T04:37:14.327Z,9.681165
2022-09-23T04:38:14.324Z,9.680942
2022-09-23T04:39:14.329Z,9.681383
2022-09-23T04:40:14.385Z,9.680944
2022-09-23T04:41:14.312Z,9.680996
2022-09-23T04:42:14.316Z,9.681277
2022-09-23T04:43:14.286Z,9.681356
2022-09-23T04:44:14.287Z,9.680968
2022-09-23T04:45:14.279Z,9.680938
2022-09-23T04:46:14.328Z,9.681146
2022-09-23T04:47:14.262Z,9.681163
2022-09-23T04:48:14.266Z,9.681169
2022-09-23T04:49:14.268Z,9.681088
2022-09-23T04:50:14.269Z,9.680932
2022-09-23T04:51:14.250Z,9.680876
2022-09-23T04:52:14.243Z,9.680779
2022-09-23T04:53:14.237Z,9.680898
2022-09-23T04:54:14.239Z,9.681066
2022-09-23T04:55:14.246Z,9.680877
2022-09-23T04:56:14.218Z,9.681094
2022-09-23T04:57:14.238Z,9.681156
2022-09-23T04:58:14.211Z,9.681149
2022-09-23T04:59:14.192Z,9.681244
2022-09-23T05:00:14.199Z,9.681099
2022-09-23T05:01:14.256Z,9.681127
2022-09-23T05:02:14.240Z,9.681005
2022-09-23T05:03:14.206Z,9.681158
2022-09-23T05:04:14.286Z,9.681012
2022-09-23T05:05:14.164Z,9.680867
2022-09-23T05:06:14.174Z,9.680896
2022-09-23T05:07:14.148Z,9.681143
2022-09-23T05:08:14.174Z,9.681128
2022-09-23T05:09:14.144Z,9.680903
2022-09-23T05:10:14.143Z,9.681025
2022-09-23T05:11:14.144Z,9.680892
2022-09-23T05:12:14.166Z,9.680832
2022-09-23T05:13:14.130Z,9.681119
2022-09-23T05:14:14.117Z,9.680991
2022-09-23T05:15:14.116Z,9.681183
2022-09-23T05:16:14.166Z,9.680840
2022-09-23T05:17:14.103Z,9.680441
2022-09-23T05:18:16.903Z,9.680820
2022-09-23T05:19:15.140Z,9.681007
2022-09-23T05:20:14.086Z,9.680964
2022-09-23T05:21:14.088Z,9.680272
2022-09-23T05:22:14.073Z,9.680249
2022-09-23T05:23:14.094Z,9.680765
2022-09-23T05:24:14.068Z,9.680937
2022-09-23T05:25:14.066Z,9.681043
2022-09-23T05:26:14.067Z,9.681046
2022-09-23T05:27:14.070Z,9.680585
2022-09-23T05:28:14.042Z,9.680811
2022-09-23T05:29:14.051Z,9.680985
2022-09-23T05:30:14.037Z,9.680986
2022-09-23T05:31:18.856Z,9.680919
2022-09-23T05:32:15.049Z,9.680951
2022-09-23T05:33:14.029Z,9.681000
2022-09-23T05:34:14.019Z,9.680797
2022-09-23T05:35:14.020Z,9.680751
2022-09-23T05:36:14.008Z,9.680911
2022-09-23T05:37:14.022Z,9.681005
2022-09-23T05:38:14.001Z,9.681022
2022-09-23T05:39:13.999Z,9.680998
2022-09-23T05:40:14.044Z,9.681027
2022-09-23T05:41:13.979Z,9.681124
2022-09-23T05:42:13.982Z,9.680923
2022-09-23T05:43:13.989Z,9.680951
2022-09-23T05:44:13.965Z,9.680854
2022-09-23T05:45:13.973Z,9.680365
2022-09-23T05:46:14.002Z,9.680628
2022-09-23T05:47:13.964Z,9.681105
2022-09-23T05:48:13.953Z,9.681059
2022-09-23T05:49:13.941Z,9.680856
2022-09-23T05:50:13.963Z,9.680706
2022-09-23T05:51:13.932Z,9.681048
2022-09-23T05:52:13.939Z,9.681092
2022-09-23T05:53:13.922Z,9.681502
2022-09-23T05:54:13.929Z,9.681324
2022-09-23T05:55:13.906Z,9.681077
2022-09-23T05:56:13.923Z,9.681082
2022-09-23T05:57:13.910Z,9.680846
2022-09-23T05:58:13.902Z,9.680861
2022-09-23T05:59:13.892Z,9.680834
2022-09-23T06:00:13.881Z,9.680877
2022-09-23T06:01:13.881Z,9.680983
2022-09-23T06:02:13.922Z,9.681057
2022-09-23T06:03:13.980Z,9.680960
2022-09-23T06:04:13.859Z,9.680855
2022-09-23T06:05:13.860Z,9.680986
2022-09-23T06:06:13.851Z,9.681191
2022-09-23T06:07:13.852Z,9.681263
2022-09-23T06:08:13.836Z,9.681372
2022-09-23T06:09:13.855Z,9.681264
2022-09-23T06:10:13.831Z,9.680900
2022-09-23T06:11:13.831Z,9.680943
2022-09-23T06:12:13.927Z,9.681044
2022-09-23T06:13:13.807Z,9.681237
2022-09-23T06:14:13.837Z,9.680935
2022-09-23T06:15:13.794Z,9.681132
2022-09-23T06:16:13.882Z,9.681029
2022-09-23T06:17:13.778Z,9.681110
2022-09-23T06:18:13.777Z,9.680797
2022-09-23T06:19:13.773Z,9.681096
2022-09-23T06:20:13.786Z,9.681015
2022-09-23T06:21:13.777Z,9.681155
2022-09-23T06:22:13.751Z,9.681034
2022-09-23T06:23:13.739Z,9.680931
2022-09-23T06:24:18.824Z,9.680996
2022-09-23T06:25:13.726Z,9.680923
2022-09-23T06:26:13.725Z,9.681069
2022-09-23T06:27:13.739Z,9.679691
2022-09-23T06:28:13.722Z,9.680754
2022-09-23T06:29:13.728Z,9.681028
2022-09-23T06:30:13.710Z,9.681130
2022-09-23T06:31:14.097Z,9.680888
2022-09-23T06:32:13.687Z,9.680963
2022-09-23T06:33:13.681Z,9.681291
2022-09-23T06:34:14.334Z,9.681116
2022-09-23T06:35:24.683Z,9.681431
2022-09-23T06:36:23.924Z,9.681042
2022-09-23T06:37:19.976Z,9.681520
2022-09-23T06:38:14.650Z,9.681209
2022-09-23T06:39:13.649Z,9.681387
2022-09-23T06:40:13.665Z,9.681603
2022-09-23T06:41:13.651Z,9.681593
2022-09-23T06:42:13.664Z,9.681469
2022-09-23T06:43:13.617Z,9.680806
2022-09-23T06:44:13.618Z,9.680771
2022-09-23T06:45:13.605Z,9.680786
2022-09-23T06:46:13.649Z,9.680950
2022-09-23T06:47:13.594Z,9.681042
2022-09-23T06:48:13.626Z,9.680741
2022-09-23T06:49:13.691Z,9.680880
2022-09-23T06:50:13.578Z,9.681068
2022-09-23T06:51:13.578Z,9.681306
2022-09-23T06:52:13.597Z,9.681127
2022-09-23T06:53:13.560Z,9.681054
2022-09-23T06:54:13.559Z,9.681025
2022-09-23T06:55:13.551Z,9.680959
2022-09-23T06:56:13.549Z,9.680574
2022-09-23T06:57:13.542Z,9.681139
2022-09-23T06:58:13.560Z,9.681244
2022-09-23T06:59:13.550Z,9.681099
2022-09-23T07:00:13.556Z,9.681204
2022-09-23T07:01:13.561Z,9.681299
2022-09-23T07:02:13.673Z,9.681047
2022-09-23T07:03:13.525Z,9.681178
2022-09-23T07:04:13.501Z,9.681190
2022-09-23T07:05:13.493Z,9.681129
2022-09-23T07:06:13.493Z,9.681144
2022-09-23T07:07:13.503Z,9.681047
2022-09-23T07:08:13.477Z,9.681058
2022-09-23T07:09:13.489Z,9.681043
2022-09-23T07:10:13.474Z,9.681071
2022-09-23T07:11:13.601Z,9.681067
2022-09-23T07:12:13.474Z,9.681303
2022-09-23T07:13:16.243Z,9.681278
2022-09-23T07:14:13.458Z,9.681220
2022-09-23T07:15:13.430Z,9.680960
2022-09-23T07:16:13.484Z,9.680885
2022-09-23T07:17:13.415Z,9.681077
2022-09-23T07:18:13.410Z,9.681069
2022-09-23T07:19:13.440Z,9.681001
2022-09-23T07:20:13.409Z,9.681252
2022-09-23T07:21:13.389Z,9.681272
2022-09-23T07:22:13.467Z,9.681211
2022-09-23T07:23:13.382Z,9.681046
2022-09-23T07:24:13.388Z,9.680878
2022-09-23T07:25:13.376Z,9.681047
2022-09-23T07:26:13.380Z,9.681262
2022-09-23T07:27:13.371Z,9.681241
2022-09-23T07:28:13.392Z,9.681366
2022-09-23T07:29:13.372Z,9.681288
2022-09-23T07:30:22.223Z,9.681079
2022-09-23T07:31:14.993Z,9.681110
2022-09-23T07:32:14.389Z,9.681118
2022-09-23T07:33:28.192Z,9.681146
2022-09-23T07:34:14.352Z,9.681117
2022-09-23T07:35:13.330Z,9.680956
2022-09-23T07:36:13.342Z,9.680945
2022-09-23T07:37:13.330Z,9.680669
2022-09-23T07:38:13.306Z,9.680935
2022-09-23T07:39:13.301Z,9.680889
2022-09-23T07:40:13.362Z,9.680837
2022-09-23T07:41:13.285Z,9.680864
2022-09-23T07:42:13.334Z,9.681207
2022-09-23T07:43:13.275Z,9.681180
2022-09-23T07:44:13.295Z,9.681314
2022-09-23T07:45:13.256Z,9.681349
2022-09-23T07:46:13.329Z,9.681724
2022-09-23T07:47:13.245Z,9.681592
2022-09-23T07:48:13.241Z,9.681568
2022-09-23T07:49:13.263Z,9.681023
2022-09-23T07:50:13.228Z,9.680784
2022-09-23T07:51:13.225Z,9.681459
2022-09-23T07:52:13.224Z,9.681125
2022-09-23T07:53:13.201Z,9.680899
2022-09-23T07:54:13.208Z,9.680860
2022-09-23T07:55:15.630Z,9.681408
2022-09-23T07:56:14.201Z,9.680937
2022-09-23T07:57:13.190Z,9.681165
2022-09-23T07:58:13.197Z,9.681172
2022-09-23T07:59:13.201Z,9.681184
2022-09-23T08:00:13.187Z,9.681292
2022-09-23T08:01:13.191Z,9.681315
2022-09-23T08:02:13.205Z,9.681204
2022-09-23T08:03:13.198Z,9.680957
2022-09-23T08:04:13.167Z,9.680698
2022-09-23T08:05:13.157Z,9.680278
2022-09-23T08:06:13.139Z,9.681128
2022-09-23T08:07:13.135Z,9.680999
2022-09-23T08:08:13.139Z,9.680923
2022-09-23T08:09:13.154Z,9.680976
2022-09-23T08:10:13.119Z,9.680590
2022-09-23T08:11:13.132Z,9.681079
2022-09-23T08:12:16.014Z,9.681469
2022-09-23T08:13:13.095Z,9.681360
2022-09-23T08:14:13.131Z,9.681365
2022-09-23T08:15:13.084Z,9.681563
2022-09-23T08:16:13.150Z,9.681108
2022-09-23T08:17:13.068Z,9.681003
2022-09-23T08:18:13.067Z,9.681329
2022-09-23T08:19:13.054Z,9.681351
2022-09-23T08:20:13.070Z,9.681123
2022-09-23T08:21:13.043Z,9.680882
2022-09-23T08:22:13.027Z,9.681186
2022-09-23T08:23:13.025Z,9.681150
2022-09-23T08:24:13.028Z,9.681376
2022-09-23T08:25:13.009Z,9.681434
2022-09-23T08:26:19.720Z,9.680858
2022-09-23T08:27:12.990Z,9.682441
2022-09-23T08:28:13.000Z,9.681683
2022-09-23T08:29:12.985Z,9.681507
2022-09-23T08:30:13.031Z,9.680963
2022-09-23T08:31:13.049Z,9.680359
2022-09-23T08:32:12.949Z,9.681163
2022-09-23T08:33:12.941Z,9.681215
2022-09-23T08:34:12.938Z,9.680409
2022-09-23T08:35:12.929Z,9.680584
2022-09-23T08:36:12.926Z,9.681127
2022-09-23T08:37:12.938Z,9.681459
2022-09-23T08:38:12.913Z,9.681574
2022-09-23T08:39:12.902Z,9.681265
2022-09-23T08:40:12.957Z,9.681362
2022-09-23T08:41:12.903Z,9.681295
2022-09-23T08:42:12.872Z,9.681209
2022-09-23T08:43:12.865Z,9.681372
2022-09-23T08:44:12.855Z,9.681082
2022-09-23T08:45:12.843Z,9.681216
2022-09-23T08:46:12.887Z,9.681170
2022-09-23T08:47:12.853Z,9.681407
2022-09-23T08:48:13.240Z,9.681816
2022-09-23T08:49:12.825Z,9.682155
2022-09-23T08:50:12.962Z,9.681858
2022-09-23T08:51:12.787Z,9.681343
2022-09-23T08:52:12.848Z,9.681357
2022-09-23T08:53:12.790Z,9.681604
2022-09-23T08:54:12.778Z,9.681571
2022-09-23T08:55:12.760Z,9.681210
2022-09-23T08:56:12.755Z,9.681164
2022-09-23T08:57:12.739Z,9.680902
2022-09-23T08:58:25.020Z,9.680935
2022-09-23T08:59:13.726Z,9.681139
2022-09-23T09:00:12.738Z,9.681263
2022-09-23T09:01:12.751Z,9.681321
2022-09-23T09:02:12.736Z,9.681195
2022-09-23T09:03:12.693Z,9.681245
2022-09-23T09:04:12.873Z,9.681265
2022-09-23T09:05:12.800Z,9.681223
2022-09-23T09:06:12.672Z,9.681265
2022-09-23T09:08:12.684Z,9.681129
2022-09-23T09:09:12.651Z,9.680894
2022-09-23T09:10:12.698Z,9.681186
2022-09-23T09:11:12.656Z,9.681233
2022-09-23T09:12:12.631Z,9.681427
2022-09-23T09:13:12.650Z,9.681232
2022-09-23T09:14:12.613Z,9.681302
2022-09-23T09:15:12.604Z,9.680974
2022-09-23T09:16:12.641Z,9.681009
2022-09-23T09:17:12.589Z,9.681074
2022-09-23T09:18:12.585Z,9.680541
2022-09-23T09:19:12.591Z,9.680716
2022-09-23T09:20:12.581Z,9.680732
2022-09-23T09:21:12.596Z,9.681163
2022-09-23T09:22:12.551Z,9.681010
2022-09-23T09:23:12.559Z,9.680883
2022-09-23T09:24:12.540Z,9.680760
2022-09-23T09:25:14.404Z,9.680974
2022-09-23T09:26:12.526Z,9.680963
2022-09-23T09:27:12.510Z,9.681005
2022-09-23T09:28:12.516Z,9.680883
2022-09-23T09:29:33.722Z,9.681087
2022-09-23T09:30:13.505Z,9.681228
2022-09-23T09:31:12.537Z,9.681218
2022-09-23T09:32:12.478Z,9.681138
2022-09-23T09:33:12.469Z,9.681228
2022-09-23T09:34:12.485Z,9.681101
2022-09-23T09:35:12.526Z,9.681137
2022-09-23T09:36:12.443Z,9.681114
2022-09-23T09:37:12.441Z,9.681294
2022-09-23T09:38:12.441Z,9.681102
2022-09-23T09:39:12.450Z,9.681167
2022-09-23T09:40:12.536Z,9.681194
2022-09-23T09:41:12.410Z,9.681178
2022-09-23T09:42:12.410Z,9.680954
2022-09-23T09:43:12.401Z,9.680915
2022-09-23T09:44:12.388Z,9.681190
2022-09-23T09:45:12.400Z,9.681086
2022-09-23T09:46:12.401Z,9.680931
2022-09-23T09:47:12.358Z,9.681031
2022-09-23T09:48:12.352Z,9.681394
2022-09-23T09:49:12.350Z,9.681353
2022-09-23T09:50:12.345Z,9.681031
2022-09-23T09:51:12.357Z,9.681314
2022-09-23T09:52:12.321Z,9.681135
2022-09-23T09:53:12.265Z,9.681348
2022-09-23T09:54:12.247Z,9.681065
2022-09-23T09:55:12.294Z,9.681190
2022-09-23T09:56:12.265Z,9.681074
2022-09-23T09:57:12.251Z,9.680370
2022-09-23T09:58:12.222Z,9.680902
2022-09-23T09:59:12.207Z,9.680902
2022-09-23T10:00:12.231Z,9.680902
2022-09-23T10:01:12.224Z,9.680902
2022-09-23T10:02:12.182Z,9.680902
2022-09-23T10:03:12.202Z,9.680902
2022-09-23T10:04:12.229Z,9.681492
2022-09-23T10:05:12.208Z,9.681053
2022-09-23T10:06:12.158Z,9.681444
2022-09-23T10:07:12.146Z,9.681333
2022-09-23T10:08:12.143Z,9.681505
2022-09-23T10:09:12.165Z,9.681229
2022-09-23T10:10:22.434Z,9.681121
2022-09-23T10:11:13.145Z,9.681641
2022-09-23T10:12:12.113Z,9.681178
2022-09-23T10:13:12.099Z,9.681490
2022-09-23T10:14:12.109Z,9.681261
2022-09-23T10:15:12.090Z,9.681694
2022-09-23T10:16:12.088Z,9.681195
2022-09-23T10:17:12.096Z,9.680696
2022-09-23T10:18:12.071Z,9.681209
2022-09-23T10:19:12.054Z,9.680640
2022-09-23T10:20:12.040Z,9.681354
2022-09-23T10:21:12.039Z,9.681195
2022-09-23T10:22:12.038Z,9.680968
2022-09-23T10:23:12.053Z,9.681235
2022-09-23T10:24:12.044Z,9.681060
2022-09-23T10:25:12.001Z,9.681049
2022-09-23T10:26:12.007Z,9.681045
2022-09-23T10:27:12.066Z,9.681306
2022-09-23T10:28:11.991Z,9.681101
2022-09-23T10:29:11.976Z,9.681054
2022-09-23T10:30:11.965Z,9.681009
2022-09-23T10:31:12.040Z,9.681175
2022-09-23T10:32:11.952Z,9.681443
2022-09-23T10:33:11.971Z,9.681613
2022-09-23T10:34:11.939Z,9.681583
2022-09-23T10:35:11.951Z,9.682076
2022-09-23T10:36:11.920Z,9.681618
2022-09-23T10:37:11.925Z,9.681641
2022-09-23T10:38:11.907Z,9.681452
2022-09-23T10:39:11.888Z,9.681083
2022-09-23T10:40:12.035Z,9.681098
2022-09-23T10:41:11.892Z,9.681209
2022-09-23T10:42:11.935Z,9.681399
2022-09-23T10:43:11.880Z,9.681005
2022-09-23T10:44:11.900Z,9.682095
2022-09-23T10:45:11.856Z,9.682020
2022-09-23T10:46:11.888Z,9.681501
2022-09-23T10:47:11.855Z,9.681271
2022-09-23T10:48:11.857Z,9.681013
2022-09-23T10:49:11.828Z,9.681104
2022-09-23T10:50:11.855Z,9.681003
2022-09-23T10:51:11.814Z,9.681009
2022-09-23T10:52:11.806Z,9.680973
2022-09-23T10:53:11.797Z,9.680793
2022-09-23T10:54:11.824Z,9.681034
2022-09-23T10:55:11.808Z,9.680623
2022-09-23T10:56:11.785Z,9.680555
2022-09-23T10:57:11.779Z,9.681201
2022-09-23T10:58:11.765Z,9.680845
2022-09-23T10:59:11.758Z,9.681431
2022-09-23T11:00:11.854Z,9.681861
2022-09-23T11:01:11.802Z,9.681356
2022-09-23T11:02:11.732Z,9.681845
2022-09-23T11:03:11.724Z,9.681696
2022-09-23T11:04:12.212Z,9.681266
2022-09-23T11:05:11.747Z,9.681313
2022-09-23T11:06:11.708Z,9.681242
2022-09-23T11:07:11.701Z,9.681158
2022-09-23T11:08:11.696Z,9.680982
2022-09-23T11:09:11.707Z,9.681055
2022-09-23T11:10:23.235Z,9.681088
2022-09-23T11:11:12.671Z,9.680970
2022-09-23T11:12:11.672Z,9.681197
2022-09-23T11:13:11.695Z,9.681193
2022-09-23T11:14:11.651Z,9.681347
2022-09-23T11:15:11.638Z,9.681437
2022-09-23T11:16:11.671Z,9.681166
2022-09-23T11:17:11.682Z,9.681104
2022-09-23T11:18:11.659Z,9.680696
2022-09-23T11:19:11.631Z,9.681071
2022-09-23T11:20:11.610Z,9.681489
2022-09-23T11:21:11.599Z,9.681608
2022-09-23T11:22:11.591Z,9.681063
2022-09-23T11:23:11.590Z,9.680986
2022-09-23T11:24:11.602Z,9.681098
2022-09-23T11:25:11.575Z,9.680790
2022-09-23T11:26:11.590Z,9.681243
2022-09-23T11:27:11.556Z,9.681100
2022-09-23T11:28:11.566Z,9.681212
2022-09-23T11:29:11.812Z,9.681235
2022-09-23T11:30:11.538Z,9.681008
2022-09-23T11:31:11.601Z,9.681076
2022-09-23T11:32:11.628Z,9.681306
2022-09-23T11:33:11.512Z,9.681188
2022-09-23T11:34:11.522Z,9.681185
2022-09-23T11:35:11.495Z,9.681143
2022-09-23T11:36:11.497Z,9.681210
2022-09-23T11:37:11.503Z,9.681106
2022-09-23T11:38:11.481Z,9.680980
2022-09-23T11:39:11.476Z,9.681079
2022-09-23T11:40:11.498Z,9.681019
2022-09-23T11:41:11.463Z,9.681008
2022-09-23T11:42:11.460Z,9.681059
2022-09-23T11:43:11.487Z,9.681207
2022-09-23T11:44:11.438Z,9.681190
2022-09-23T11:45:11.426Z,9.681141